Murdock Crossing, Mississippi
Current Conditions -  °F | °C
As of 8:53 PM on Monday 22 Dec 2014 (Local Time) from KGWO Reporting Station
Overcast Overcast  
Wind Chill: 62°   Ceiling: 7500
Heat Index: 62°   Visibility: 9mi
Dew Point: 59°   Wind: 5mph
Humidity: 90%   Direction: 210°SSW
Pressure: 29.65"   Gusts: NA
Location:  33.4064°N, 90.3812°W
Report Text: KGWO 230253Z AUTO 21004KT 9SM FEW009 BKN075 OVC090 17/15 A2965 RMK AO2 RAB38E50 SLP040 P0000 60000 T01670150 50002
Loading
Personal Weather Stations






























Interactive Weather Map New forecast layout! Learn more

10-Day Weather Forecast

Advertisements
Track Severe Weather on mobile